createdAt,value
2022-08-11T00:02:01.843Z,98052.66
2022-08-11T00:04:37.217Z,98051.16
2022-08-11T00:07:06.970Z,98041.47
2022-08-11T00:09:39.737Z,98048.97
2022-08-11T00:12:18.863Z,98050.22
2022-08-11T00:14:58.417Z,98047.66
2022-08-11T00:17:34.016Z,98052.75
2022-08-11T00:20:16.739Z,98048.28
2022-08-11T00:22:48.322Z,98044.38
2022-08-11T00:25:20.617Z,98042.72
2022-08-11T00:27:49.374Z,98046.28
2022-08-11T00:30:17.867Z,98050.88
2022-08-11T00:32:56.505Z,98050.41
2022-08-11T00:35:51.454Z,98058.00
2022-08-11T00:38:25.393Z,98055.50
2022-08-11T00:41:16.840Z,98061.09
2022-08-11T00:44:12.209Z,98055.31
2022-08-11T00:47:03.570Z,98057.91
2022-08-11T00:50:13.441Z,98052.59
2022-08-11T00:53:26.594Z,98044.31
2022-08-11T00:56:09.064Z,98048.56
2022-08-11T00:59:34.337Z,98053.66
2022-08-11T01:02:06.101Z,98053.91
2022-08-11T01:04:57.258Z,98051.91
2022-08-11T01:08:30.236Z,98049.41
2022-08-11T01:11:39.143Z,98045.28
2022-08-11T01:15:03.235Z,98051.78
2022-08-11T01:18:17.408Z,98048.06
2022-08-11T01:21:35.404Z,98055.41
2022-08-11T01:24:43.236Z,98048.78
2022-08-11T01:27:19.562Z,98055.41
2022-08-11T01:30:25.063Z,98054.00
2022-08-11T01:33:39.463Z,98052.81
2022-08-11T01:36:53.585Z,98052.69
2022-08-11T01:39:46.327Z,98045.13
2022-08-11T01:42:59.854Z,98044.75
2022-08-11T01:45:59.619Z,98040.84
2022-08-11T01:49:00.626Z,98036.47
2022-08-11T01:52:34.839Z,98037.78
2022-08-11T01:55:27.074Z,98040.34
2022-08-11T01:58:16.751Z,98051.09
2022-08-11T02:01:24.603Z,98048.25
2022-08-11T02:04:32.173Z,98035.75
2022-08-11T02:07:27.466Z,98053.53
2022-08-11T02:10:42.708Z,98052.59
2022-08-11T02:14:14.880Z,98057.19
2022-08-11T02:17:22.629Z,98061.88
2022-08-11T02:20:18.079Z,98050.13
2022-08-11T02:24:05.578Z,98043.06
2022-08-11T02:26:31.884Z,98042.22
2022-08-11T02:30:05.189Z,98046.44
2022-08-11T02:33:14.829Z,98034.63
2022-08-11T02:36:25.092Z,98034.72
2022-08-11T02:39:03.668Z,98033.97
2022-08-11T02:42:05.516Z,98035.88
2022-08-11T02:45:09.853Z,98033.59
2022-08-11T02:48:07.046Z,98028.25
2022-08-11T02:51:22.101Z,98031.59
2022-08-11T02:54:32.705Z,98030.47
2022-08-11T02:57:12.266Z,98037.28
2022-08-11T03:00:10.501Z,98037.50
2022-08-11T03:02:49.773Z,98036.50
2022-08-11T03:05:57.401Z,98032.78
2022-08-11T03:08:51.333Z,98040.53
2022-08-11T03:12:08.265Z,98034.13
2022-08-11T03:15:51.773Z,98037.75
2022-08-11T03:18:41.274Z,98037.25
2022-08-11T03:22:01.694Z,98035.19
2022-08-11T03:25:03.305Z,98031.50
2022-08-11T03:28:05.833Z,98040.09
2022-08-11T03:30:55.716Z,98046.41
2022-08-11T03:33:52.508Z,98046.84
2022-08-11T03:37:48.588Z,98046.91
2022-08-11T03:40:37.954Z,98053.66
2022-08-11T03:43:26.797Z,98053.88
2022-08-11T03:46:24.556Z,98056.78
2022-08-11T03:49:31.507Z,98057.41
2022-08-11T03:52:38.044Z,98060.06
2022-08-11T03:55:32.125Z,98055.53
2022-08-11T03:58:18.625Z,98060.31
2022-08-11T04:01:32.484Z,98055.97
2022-08-11T04:04:56.268Z,98055.75
2022-08-11T04:08:01.285Z,98052.88
2022-08-11T04:10:47.725Z,98052.91
2022-08-11T04:14:22.116Z,98052.50
2022-08-11T04:17:27.150Z,98051.25
2022-08-11T04:20:16.154Z,98050.84
2022-08-11T04:24:36.589Z,98051.25
2022-08-11T04:26:41.712Z,98049.81
2022-08-11T04:29:36.306Z,98054.63
2022-08-11T04:32:42.098Z,98056.72
2022-08-11T04:35:51.009Z,98045.66
2022-08-11T04:39:20.244Z,98043.59
2022-08-11T04:42:58.208Z,98046.91
2022-08-11T04:45:56.501Z,98055.03
2022-08-11T04:49:04.047Z,98052.13
2022-08-11T04:52:12.941Z,98050.69
2022-08-11T04:55:24.134Z,98052.13
2022-08-11T04:58:21.840Z,98051.53
2022-08-11T05:01:43.460Z,98048.34
2022-08-11T05:05:07.448Z,98061.25
2022-08-11T05:08:03.523Z,98068.94
2022-08-11T05:11:25.142Z,98062.28
2022-08-11T05:14:32.174Z,98061.22
2022-08-11T05:17:59.457Z,98063.03
2022-08-11T05:20:46.903Z,98070.34
2022-08-11T05:23:35.435Z,98069.91
2022-08-11T05:26:46.183Z,98067.13
2022-08-11T05:30:07.560Z,98065.59
2022-08-11T05:33:03.819Z,98070.31
2022-08-11T05:36:03.149Z,98074.50
2022-08-11T05:38:54.789Z,98070.28
2022-08-11T05:41:45.774Z,98072.53
2022-08-11T05:44:39.448Z,98072.47
2022-08-11T05:47:26.683Z,98079.28
2022-08-11T05:50:15.317Z,98073.16
2022-08-11T05:53:09.332Z,98075.06
2022-08-11T05:56:04.146Z,98077.28
2022-08-11T05:58:43.720Z,98071.22
2022-08-11T06:01:21.570Z,98074.75
2022-08-11T06:04:11.898Z,98070.31
2022-08-11T06:07:09.401Z,98081.25
2022-08-11T06:09:44.492Z,98079.53
2022-08-11T06:12:24.382Z,98073.41
2022-08-11T06:14:57.150Z,98076.72
2022-08-11T06:17:38.401Z,98080.19
2022-08-11T06:20:12.460Z,98072.44
2022-08-11T06:22:48.526Z,98077.38
2022-08-11T06:25:20.292Z,98075.88
2022-08-11T06:27:56.534Z,98071.66
2022-08-11T06:30:44.178Z,98075.56
2022-08-11T06:33:29.604Z,98087.41
2022-08-11T06:36:24.355Z,98085.63
2022-08-11T06:39:20.390Z,98084.03
2022-08-11T06:42:03.414Z,98083.34
2022-08-11T06:45:11.622Z,98082.81
2022-08-11T06:47:49.803Z,98082.81
2022-08-11T06:50:39.978Z,98084.25
2022-08-11T06:53:10.697Z,98082.72
2022-08-11T06:56:04.182Z,98086.84
2022-08-11T06:58:55.042Z,98086.63
2022-08-11T07:02:05.748Z,98086.28
2022-08-11T07:04:43.268Z,98095.88
2022-08-11T07:08:33.918Z,98099.78
2022-08-11T07:11:39.597Z,98092.22
2022-08-11T07:14:27.103Z,98089.59
2022-08-11T07:17:02.843Z,98091.13
2022-08-11T07:19:51.014Z,98081.69
2022-08-11T07:22:44.685Z,98079.84
2022-08-11T07:25:36.968Z,98083.88
2022-08-11T07:28:41.810Z,98077.00
2022-08-11T07:31:42.294Z,98076.91
2022-08-11T07:34:38.177Z,98076.78
2022-08-11T07:37:16.301Z,98077.16
2022-08-11T07:39:47.613Z,98077.78
2022-08-11T07:42:23.791Z,98079.31
2022-08-11T07:45:14.556Z,98082.16
2022-08-11T07:48:05.374Z,98074.47
2022-08-11T07:50:56.213Z,98076.22
2022-08-11T07:53:25.620Z,98069.59
2022-08-11T07:55:58.058Z,98076.25
2022-08-11T07:58:53.399Z,98064.75
2022-08-11T08:01:45.112Z,98074.16
2022-08-11T08:04:36.214Z,98065.03
2022-08-11T08:07:26.678Z,98059.72
2022-08-11T08:10:16.237Z,98059.88
2022-08-11T08:13:04.151Z,98059.94
2022-08-11T08:15:51.245Z,98058.16
2022-08-11T08:18:27.766Z,98065.84
2022-08-11T08:21:12.535Z,98072.69
2022-08-11T08:23:46.870Z,98069.00
2022-08-11T08:26:35.598Z,98064.75
2022-08-11T08:29:26.256Z,98072.06
2022-08-11T08:31:56.780Z,98066.50
2022-08-11T08:34:25.349Z,98071.78
2022-08-11T08:36:58.341Z,98073.53
2022-08-11T08:39:31.742Z,98070.66
2022-08-11T08:42:03.973Z,98075.72
2022-08-11T08:44:40.878Z,98061.91
2022-08-11T08:47:42.678Z,98060.72
2022-08-11T08:50:16.446Z,98066.13
2022-08-11T08:53:05.791Z,98063.56
2022-08-11T08:55:35.055Z,98062.56
2022-08-11T08:58:03.781Z,98058.03
2022-08-11T09:00:43.220Z,98063.63
2022-08-11T09:03:38.922Z,98055.53
2022-08-11T09:06:01.186Z,98054.53
2022-08-11T09:08:33.577Z,98056.25
2022-08-11T09:11:23.643Z,98053.69
2022-08-11T09:14:06.611Z,98051.38
2022-08-11T09:16:39.416Z,98061.84
2022-08-11T09:19:09.199Z,98050.19
2022-08-11T09:21:48.913Z,98046.44
2022-08-11T09:24:38.583Z,98050.41
2022-08-11T09:27:11.916Z,98046.97
2022-08-11T09:29:40.577Z,98047.00
2022-08-11T09:32:09.509Z,98051.97
2022-08-11T09:34:39.480Z,98043.84
2022-08-11T09:37:54.356Z,98047.53
2022-08-11T09:40:29.888Z,98047.97
2022-08-11T09:43:21.822Z,98046.09
2022-08-11T09:45:56.018Z,98047.56
2022-08-11T09:48:29.387Z,98047.06
2022-08-11T09:51:01.706Z,98059.69
2022-08-11T09:53:41.019Z,98048.78
2022-08-11T09:56:47.892Z,98045.31
2022-08-11T09:59:21.328Z,98041.75
2022-08-11T10:02:00.327Z,98033.97
2022-08-11T10:04:42.532Z,98046.03
2022-08-11T10:07:14.847Z,98046.09
2022-08-11T10:09:53.459Z,98037.69
2022-08-11T10:12:36.229Z,98031.44
2022-08-11T10:16:01.531Z,98038.00
2022-08-11T10:18:42.467Z,98034.81
2022-08-11T10:21:42.203Z,98028.31
2022-08-11T10:24:30.565Z,98020.66
2022-08-11T10:27:00.687Z,98022.63
2022-08-11T10:30:01.084Z,98027.06
2022-08-11T10:32:58.748Z,98019.66
2022-08-11T10:35:30.594Z,98016.97
2022-08-11T10:38:08.784Z,98013.94
2022-08-11T10:40:45.494Z,98023.00
2022-08-11T10:44:01.343Z,98010.44
2022-08-11T10:46:29.848Z,98011.03
2022-08-11T10:49:00.399Z,98001.75
2022-08-11T10:51:50.830Z,98009.41
2022-08-11T10:54:41.435Z,97998.22
2022-08-11T10:57:28.677Z,98011.66
2022-08-11T10:59:57.828Z,98005.66
2022-08-11T11:02:27.537Z,97988.66
2022-08-11T11:05:24.981Z,97993.66
2022-08-11T11:08:23.918Z,97998.00
2022-08-11T11:10:52.542Z,97997.81
2022-08-11T11:13:42.952Z,97986.28
2022-08-11T11:16:42.590Z,97976.72
2022-08-11T11:19:12.237Z,97974.53
2022-08-11T11:21:42.334Z,97972.59
2022-08-11T11:24:58.908Z,97971.53
2022-08-11T11:27:49.951Z,97969.34
2022-08-11T11:30:18.816Z,97958.69
2022-08-11T11:33:13.035Z,97963.38
2022-08-11T11:36:11.494Z,97966.94
2022-08-11T11:38:41.472Z,97972.13
2022-08-11T11:41:25.136Z,97966.66
2022-08-11T11:43:57.239Z,97947.19
2022-08-11T11:46:31.566Z,97948.56
2022-08-11T11:49:13.989Z,97946.38
2022-08-11T11:51:50.499Z,97947.72
2022-08-11T11:54:25.219Z,97943.84
2022-08-11T11:57:18.938Z,97943.56
2022-08-11T12:00:08.489Z,97936.97
2022-08-11T12:02:40.185Z,97934.47
2022-08-11T12:05:10.887Z,97935.56
2022-08-11T12:08:10.325Z,97942.09
2022-08-11T12:11:21.813Z,97933.81
2022-08-11T12:13:53.568Z,97931.31
2022-08-11T12:16:34.259Z,97935.94
2022-08-11T12:19:11.888Z,97922.41
2022-08-11T12:22:01.402Z,97928.97
2022-08-11T12:24:50.869Z,97923.94
2022-08-11T12:27:24.914Z,97928.50
2022-08-11T12:29:59.641Z,97920.75
2022-08-11T12:32:32.119Z,97914.09
2022-08-11T12:35:01.585Z,97921.69
2022-08-11T12:37:40.898Z,97910.28
2022-08-11T12:41:16.801Z,97919.28
2022-08-11T12:44:05.952Z,97905.13
2022-08-11T12:46:37.932Z,97909.72
2022-08-11T12:49:34.240Z,97905.47
2022-08-11T12:52:13.916Z,97901.47
2022-08-11T12:55:13.807Z,97897.41
2022-08-11T12:58:07.422Z,97887.09
2022-08-11T13:00:54.230Z,97880.63
2022-08-11T13:03:42.115Z,97888.25
2022-08-11T13:06:11.277Z,97887.81
2022-08-11T13:08:40.993Z,97879.38
2022-08-11T13:11:54.603Z,97873.66
2022-08-11T13:14:18.290Z,97872.28
2022-08-11T13:17:05.328Z,97871.00
2022-08-11T13:19:34.582Z,97868.78
2022-08-11T13:22:05.414Z,97861.50
2022-08-11T13:24:34.504Z,97857.63
2022-08-11T13:27:03.337Z,97864.59
2022-08-11T13:29:31.447Z,97866.84
2022-08-11T13:32:00.297Z,97863.91
2022-08-11T13:34:32.998Z,97859.22
2022-08-11T13:37:02.336Z,97860.91
2022-08-11T13:39:33.474Z,97844.41
2022-08-11T13:42:03.730Z,97850.56
2022-08-11T13:44:37.810Z,97849.38
2022-08-11T13:47:09.809Z,97848.00
2022-08-11T13:49:41.281Z,97847.66
2022-08-11T13:52:19.576Z,97840.13
2022-08-11T13:54:51.327Z,97827.22
2022-08-11T13:58:09.022Z,97839.50
2022-08-11T14:00:23.461Z,97838.28
2022-08-11T14:02:58.385Z,97837.53
2022-08-11T14:05:41.464Z,97833.88
2022-08-11T14:08:37.143Z,97829.88
2022-08-11T14:12:22.224Z,97821.97
2022-08-11T14:14:25.794Z,97822.06
2022-08-11T14:16:57.507Z,97820.94
2022-08-11T14:19:27.375Z,97813.97
2022-08-11T14:22:08.539Z,97802.41
2022-08-11T14:24:44.146Z,97807.16
2022-08-11T14:28:30.221Z,97814.31
2022-08-11T14:30:01.786Z,97807.31
2022-08-11T14:32:30.077Z,97804.41
2022-08-11T14:34:58.967Z,97800.81
2022-08-11T14:37:29.207Z,97802.91
2022-08-11T14:40:03.787Z,97793.59
2022-08-11T14:42:50.935Z,97794.03
2022-08-11T14:45:58.270Z,97799.72
2022-08-11T14:48:26.743Z,97784.69
2022-08-11T14:50:56.201Z,97788.06
2022-08-11T14:53:24.384Z,97789.66
2022-08-11T14:56:12.654Z,97789.78
2022-08-11T14:58:42.061Z,97780.84
2022-08-11T15:01:30.705Z,97769.41
2022-08-11T15:04:33.930Z,97773.34
2022-08-11T15:06:48.464Z,97772.81
2022-08-11T15:09:16.756Z,97769.03
2022-08-11T15:12:03.461Z,97773.41
2022-08-11T15:14:50.204Z,97773.19
2022-08-11T15:17:25.302Z,97772.50
2022-08-11T15:24:50.282Z,97759.78
2022-08-11T15:27:40.445Z,97755.69
2022-08-11T15:30:33.275Z,97753.19
2022-08-11T15:33:26.585Z,97751.16
2022-08-11T15:36:15.354Z,97749.34
2022-08-11T15:39:19.536Z,97755.84
2022-08-11T15:42:18.221Z,97747.50
2022-08-11T15:45:15.042Z,97745.06
2022-08-11T15:48:02.501Z,97739.16
2022-08-11T15:50:42.511Z,97736.06
2022-08-11T15:53:39.511Z,97735.59
2022-08-11T15:56:09.412Z,97730.84
2022-08-11T15:59:40.807Z,97730.16
2022-08-11T16:02:30.921Z,97739.50
2022-08-11T16:05:02.291Z,97733.69
2022-08-11T16:07:38.471Z,97740.47
2022-08-11T16:10:19.348Z,97733.06
2022-08-11T16:13:06.098Z,97727.59
2022-08-11T16:15:59.276Z,97722.31
2022-08-11T16:18:40.923Z,97726.31
2022-08-11T16:21:40.201Z,97724.63
2022-08-11T16:27:01.868Z,97723.19
2022-08-11T16:27:13.572Z,97720.94
2022-08-11T16:29:46.526Z,97715.56
2022-08-11T16:32:23.264Z,97723.34
2022-08-11T16:35:37.425Z,97716.97
2022-08-11T16:38:25.673Z,97711.41
2022-08-11T16:40:55.816Z,97719.34
2022-08-11T16:43:46.357Z,97717.28
2022-08-11T16:46:40.124Z,97717.09
2022-08-11T16:49:22.950Z,97720.47
2022-08-11T16:51:52.219Z,97717.41
2022-08-11T16:54:21.366Z,97724.47
2022-08-11T16:56:55.492Z,97714.75
2022-08-11T16:59:32.418Z,97711.09
2022-08-11T17:02:07.840Z,97721.28
2022-08-11T17:05:13.703Z,97721.72
2022-08-11T17:08:03.274Z,97714.81
2022-08-11T17:11:03.871Z,97716.38
2022-08-11T17:13:57.896Z,97713.84
2022-08-11T17:16:40.171Z,97712.97
2022-08-11T17:20:40.660Z,97707.88
2022-08-11T17:22:28.397Z,97708.59
2022-08-11T17:24:59.093Z,97703.41
2022-08-11T17:27:28.566Z,97705.59
2022-08-11T17:30:04.178Z,97701.09
2022-08-11T17:33:00.459Z,97702.25
2022-08-11T17:35:38.929Z,97701.50
2022-08-11T17:38:17.107Z,97690.28
2022-08-11T17:41:23.500Z,97699.66
2022-08-11T17:44:12.564Z,97701.88
2022-08-11T17:47:05.699Z,97690.19
2022-08-11T17:49:38.028Z,97691.78
2022-08-11T17:52:26.208Z,97692.50
2022-08-11T17:55:13.939Z,97693.78
2022-08-11T17:58:01.027Z,97694.25
2022-08-11T18:00:31.891Z,97701.50
2022-08-11T18:03:19.618Z,97695.88
2022-08-11T18:05:49.247Z,97698.69
2022-08-11T18:08:37.747Z,97707.41
2022-08-11T18:12:10.096Z,97704.47
2022-08-11T18:14:34.588Z,97716.16
2022-08-11T18:17:21.307Z,97712.41
2022-08-11T18:20:07.823Z,97710.06
2022-08-11T18:23:01.747Z,97712.44
2022-08-11T18:25:57.908Z,97716.13
2022-08-11T18:28:54.712Z,97721.75
2022-08-11T18:31:43.887Z,97726.78
2022-08-11T18:34:34.900Z,97728.84
2022-08-11T18:37:48.532Z,97728.91
2022-08-11T18:40:46.261Z,97729.56
2022-08-11T18:43:38.280Z,97734.38
2022-08-11T18:46:28.423Z,97733.06
2022-08-11T18:50:01.562Z,97732.63
2022-08-11T18:52:36.835Z,97737.66
2022-08-11T18:55:29.285Z,97736.91
2022-08-11T18:58:19.531Z,97739.19
2022-08-11T19:01:07.195Z,97743.59
2022-08-11T19:03:56.121Z,97748.31
2022-08-11T19:06:58.312Z,97741.78
2022-08-11T19:09:45.485Z,97746.50
2022-08-11T19:12:34.342Z,97749.56
2022-08-11T19:15:23.873Z,97758.63
2022-08-11T19:18:12.507Z,97761.94
2022-08-11T19:21:02.588Z,97762.78
2022-08-11T19:23:57.351Z,97758.41
2022-08-11T19:26:44.646Z,97763.88
2022-08-11T19:30:07.245Z,97766.09
2022-08-11T19:32:42.212Z,97768.00
2022-08-11T19:35:30.101Z,97764.22
2022-08-11T19:38:18.762Z,97772.97
2022-08-11T19:41:06.287Z,97774.31
2022-08-11T19:43:53.503Z,97768.00
2022-08-11T19:46:43.099Z,97766.63
2022-08-11T19:49:30.955Z,97767.44
2022-08-11T19:52:18.126Z,97759.25
2022-08-11T19:55:05.251Z,97768.00
2022-08-11T19:57:54.783Z,97772.66
2022-08-11T20:00:42.620Z,97772.06
2022-08-11T20:03:31.507Z,97774.81
2022-08-11T20:06:26.192Z,97771.78
2022-08-11T20:09:18.918Z,97773.66
2022-08-11T20:12:10.221Z,97771.75
2022-08-11T20:15:00.724Z,97774.19
2022-08-11T20:17:51.879Z,97772.78
2022-08-11T20:20:41.807Z,97770.03
2022-08-11T20:23:34.880Z,97772.47
2022-08-11T20:26:31.556Z,97770.81
2022-08-11T20:29:20.539Z,97781.16
2022-08-11T20:32:09.486Z,97775.66
2022-08-11T20:34:58.752Z,97777.50
2022-08-11T20:37:50.954Z,97784.03
2022-08-11T20:40:44.495Z,97789.50
2022-08-11T20:44:06.502Z,97782.31
2022-08-11T20:46:45.605Z,97790.50
2022-08-11T20:49:45.079Z,97791.28
2022-08-11T20:52:47.412Z,97795.13
2022-08-11T20:55:51.870Z,97796.19
2022-08-11T20:59:13.386Z,97798.06
2022-08-11T21:01:52.219Z,97797.19
2022-08-11T21:04:53.956Z,97798.81
2022-08-11T21:07:55.357Z,97798.75
2022-08-11T21:10:51.832Z,97811.03
2022-08-11T21:13:43.571Z,97800.63
2022-08-11T21:16:41.952Z,97805.53
2022-08-11T21:20:06.580Z,97796.25
2022-08-11T21:23:06.682Z,97796.50
2022-08-11T21:25:59.767Z,97812.56
2022-08-11T21:28:48.981Z,97806.03
2022-08-11T21:31:38.508Z,97803.81
2022-08-11T21:34:27.050Z,97802.16
2022-08-11T21:37:13.684Z,97804.63
2022-08-11T21:40:01.912Z,97802.75
2022-08-11T21:42:53.683Z,97803.56
2022-08-11T21:45:41.289Z,97800.25
2022-08-11T21:48:30.338Z,97797.22
2022-08-11T21:51:17.028Z,97791.47
2022-08-11T21:54:04.673Z,97793.88
2022-08-11T21:56:52.078Z,97792.50
2022-08-11T21:59:50.270Z,97796.31
2022-08-11T22:02:37.893Z,97790.09
2022-08-11T22:05:26.136Z,97789.25
2022-08-11T22:08:13.263Z,97783.53
2022-08-11T22:10:59.785Z,97782.19
2022-08-11T22:14:06.292Z,97786.31
2022-08-11T22:16:53.924Z,97781.34
2022-08-11T22:19:42.980Z,97783.50
2022-08-11T22:22:31.288Z,97781.84
2022-08-11T22:25:18.891Z,97777.75
2022-08-11T22:28:07.400Z,97777.50
2022-08-11T22:30:53.930Z,97778.84
2022-08-11T22:33:45.299Z,97779.13
2022-08-11T22:36:48.659Z,97781.03
2022-08-11T22:39:36.542Z,97778.81
2022-08-11T22:42:30.148Z,97776.34
2022-08-11T22:45:21.349Z,97775.53
2022-08-11T22:48:09.123Z,97774.97
2022-08-11T22:50:59.798Z,97781.50
2022-08-11T22:53:57.289Z,97774.91
2022-08-11T22:56:50.461Z,97774.88
2022-08-11T22:59:38.395Z,97778.09
2022-08-11T23:02:25.785Z,97781.38
2022-08-11T23:05:12.677Z,97785.72
2022-08-11T23:08:00.534Z,97783.78
2022-08-11T23:10:47.542Z,97789.50
2022-08-11T23:13:34.587Z,97787.84
2022-08-11T23:16:21.401Z,97786.22
2022-08-11T23:19:08.579Z,97783.22
2022-08-11T23:21:56.135Z,97779.41
2022-08-11T23:24:44.278Z,97790.84
2022-08-11T23:27:32.727Z,97786.22
2022-08-11T23:30:20.446Z,97784.50
2022-08-11T23:33:12.495Z,97781.16
2022-08-11T23:36:05.296Z,97789.78
2022-08-11T23:38:52.744Z,97777.44
2022-08-11T23:41:39.604Z,97785.22
2022-08-11T23:44:27.609Z,97779.97
2022-08-11T23:47:20.127Z,97776.69
2022-08-11T23:50:07.283Z,97777.19
2022-08-11T23:52:55.676Z,97783.41
2022-08-11T23:55:42.379Z,97787.75
2022-08-11T23:58:30.544Z,97785.31
